메인 페이지
METAR-TAF:

METAR-TAF

공항 :

푸나푸티 국제공항

푸나푸티, 투발루

위도: 08-31S, 경도: 179-13E, 고도: 1m

현재 날씨관측

예보는 39분 전, 15:00시(UTC)에 발표되었습니다.
3kt
온도 28°C
습도 84%
기압 1008 hPa
시정 10km 이상
고도 2000ft 상공 구름 조금

METAR: NGFU 241500Z 09003KT 9999 FEW020 28/25 Q1008

시각: 03:39 (15:39 UTC)

예보

예보는 4 시간 32분 전, 11:07시(UTC)에 발표되었습니다.
예보 대상 시간: 24일 12시부터 25일 12시까지 (UTC)
동남동7kt
시정 10km 이상
고도 2000ft 상공 구름 조금
고도 10000ft 상공 구름 많음
확률 30% :
일시적
24일 12시부터 25일 06시까지 (UTC)
시정: 5000m
고도 1500ft 상공 구름 많음
소나기

TAF: NGFU 241107Z 2412/2512 11007KT 9999 FEW020 BKN100 PROB30 TEMPO 2412/2506 5000 SHRA BKN015

4,000개 이상의 공항 관측 자료 및 예보 (METAR 및 TAF 보고).

지도상에서 검색 가능한 기상관측소가 노란 점과 빨간 점으로 표시되어 있습니다.

기상관측소 명을 보려면 표시 위로 마우스를 이동하세요.

날씨 관측과 예보를 보려면 클릭하세요.

지도 변경 : 확대하려면 엑스 표시가 있는 녹색 버튼, 축소하려면 빼기 표시가 있는 녹색 버튼, 다음 페이지의 지도를 보려면 녹색 화살표를 클릭하세요.


METAR-TAF: